Terminal Aerodrome Forecast
Issued by NWS Atlanta, GA

Home | Current Version | Previous Version | Text Only | Print | Product List | Glossary On
Versions: 1 2 3 4 5 6 7 8 9 10 11 12 13 14 15 16 17
000
FTUS42 KFFC 300500
TAFMCN
TAF
KMCN 300525Z 3006/3106 30005KT P6SM SKC
     FM301400 02004KT P6SM FEW030
     FM301800 35005KT P6SM SCT030 SCT250
     FM310300 03005KT P6SM FEW250=

USA.gov is the U.S. government's official web portal to all federal, state and local government web resources and services.